Time;durP1;ratioP1;P1;durP2;ratioP2;P2;SDS_P1;SDS_P2;PMS_P1;PMS_P2;Temp;Humidity;BMP_temperature;BMP_pressure;BME280_temperature;BME280_humidity;BME280_pressure;Samples;Min_cycle;Max_cycle;Signal;HPM_P1;HPM_P2
2024/01/02 00:01:24;;;;;;;13.65;1.67;;;7.00;99.90;;;;;;4946052;28;20027;-75
2024/01/02 00:03:49;;;;;;;8.93;2.03;;;7.00;99.90;;;;;;4957640;28;20096;-73
2024/01/02 00:06:15;;;;;;;18.40;2.00;;;7.00;99.90;;;;;;4954186;28;20130;-74
2024/01/02 00:08:42;;;;;;;12.77;1.88;;;7.00;99.90;;;;;;4947148;28;20042;-74
2024/01/02 00:11:08;;;;;;;14.48;2.88;;;7.00;99.90;;;;;;4954475;28;20051;-73
2024/01/02 00:13:34;;;;;;;8.52;1.25;;;7.00;99.90;;;;;;4951237;28;20062;-73
2024/01/02 00:15:59;;;;;;;13.13;2.25;;;7.00;99.90;;;;;;4950182;28;20507;-74
2024/01/02 00:18:25;;;;;;;9.10;1.55;;;7.10;99.90;;;;;;4957362;28;20149;-75
2024/01/02 00:20:50;;;;;;;12.80;2.55;;;7.10;99.90;;;;;;4961879;28;20045;-73
2024/01/02 00:23:16;;;;;;;12.18;1.85;;;7.10;99.90;;;;;;4945787;28;20061;-72
2024/01/02 00:25:42;;;;;;;5.05;1.30;;;7.10;99.90;;;;;;4957758;28;20518;-74
2024/01/02 00:28:09;;;;;;;11.07;1.58;;;7.10;99.90;;;;;;4945603;28;20118;-74
2024/01/02 00:30:35;;;;;;;11.82;2.47;;;7.10;99.90;;;;;;4949352;28;20037;-75
2024/01/02 00:33:03;;;;;;;5.75;1.42;;;7.10;99.90;;;;;;4964006;28;20399;-75
2024/01/02 00:35:29;;;;;;;11.43;1.50;;;7.10;99.90;;;;;;4956696;28;20035;-74
2024/01/02 00:37:55;;;;;;;11.07;1.75;;;7.10;99.90;;;;;;4959150;28;20039;-72
2024/01/02 00:40:20;;;;;;;7.20;1.50;;;7.10;99.90;;;;;;4962999;28;20042;-73
2024/01/02 00:42:46;;;;;;;14.75;2.60;;;7.10;99.90;;;;;;4951110;28;20031;-74
2024/01/02 00:45:12;;;;;;;12.77;2.00;;;7.20;99.90;;;;;;4968973;28;20043;-72
2024/01/02 00:47:37;;;;;;;20.45;3.47;;;7.20;99.90;;;;;;4953026;28;20054;-75
2024/01/02 00:50:04;;;;;;;6.63;1.75;;;7.20;99.90;;;;;;4950120;28;20411;-75
2024/01/02 00:52:29;;;;;;;10.15;1.38;;;7.20;99.90;;;;;;4949225;28;20101;-73
2024/01/02 00:54:55;;;;;;;9.65;1.15;;;7.20;99.90;;;;;;4966900;28;20671;-73
2024/01/02 00:57:21;;;;;;;16.10;3.10;;;7.20;99.90;;;;;;4969004;28;20031;-75
2024/01/02 00:59:47;;;;;;;10.25;1.80;;;7.20;99.90;;;;;;4963972;28;20110;-73
2024/01/02 01:02:12;;;;;;;12.50;1.60;;;7.20;99.90;;;;;;4958109;28;20035;-74
2024/01/02 01:04:45;;;;;;;7.10;1.40;;;7.20;99.90;;;;;;4952610;28;20094;-74
2024/01/02 01:07:11;;;;;;;8.57;1.50;;;7.20;99.90;;;;;;4955863;28;20046;-74
2024/01/02 01:09:37;;;;;;;5.22;0.80;;;7.20;99.90;;;;;;4956760;28;20058;-74
2024/01/02 01:12:04;;;;;;;6.10;0.90;;;7.30;99.90;;;;;;4954794;28;20035;-73
2024/01/02 01:14:29;;;;;;;7.30;1.33;;;7.20;99.90;;;;;;4956322;28;20050;-74
2024/01/02 01:16:55;;;;;;;4.63;0.93;;;7.20;99.90;;;;;;4954421;28;20038;-74
2024/01/02 01:19:21;;;;;;;8.65;1.40;;;7.20;99.90;;;;;;4967733;28;20735;-74
2024/01/02 01:21:46;;;;;;;4.65;1.00;;;7.30;99.90;;;;;;4952198;28;20043;-74
2024/01/02 01:24:12;;;;;;;9.40;1.60;;;7.30;99.90;;;;;;4949536;28;20046;-74
2024/01/02 01:26:37;;;;;;;6.50;1.15;;;7.30;99.90;;;;;;4956419;28;20047;-73
2024/01/02 01:29:03;;;;;;;7.85;0.90;;;7.30;99.90;;;;;;4956853;28;20065;-74
2024/01/02 01:31:29;;;;;;;4.43;0.65;;;7.30;99.90;;;;;;4959333;28;20047;-74
2024/01/02 01:33:54;;;;;;;6.05;1.38;;;7.30;99.90;;;;;;4951570;28;20031;-73
2024/01/02 01:36:20;;;;;;;4.07;0.57;;;7.30;99.90;;;;;;4950529;28;20070;-74
2024/01/02 01:38:46;;;;;;;7.88;1.00;;;7.30;99.90;;;;;;4955564;28;20170;-74
2024/01/02 01:41:11;;;;;;;2.92;0.90;;;7.40;99.90;;;;;;4949192;28;20507;-75
2024/01/02 01:43:37;;;;;;;5.90;0.50;;;7.40;99.90;;;;;;4952254;28;20041;-73
2024/01/02 01:46:04;;;;;;;4.25;0.65;;;7.40;99.90;;;;;;4968677;28;20495;-72
2024/01/02 01:48:30;;;;;;;2.40;0.68;;;7.40;99.90;;;;;;4964548;28;20039;-74
2024/01/02 01:50:56;;;;;;;1.77;0.55;;;7.40;99.90;;;;;;4949060;28;20041;-75
2024/01/02 01:53:22;;;;;;;1.45;0.30;;;7.40;99.90;;;;;;4957514;28;20049;-76
2024/01/02 01:55:48;;;;;;;1.63;0.60;;;7.40;99.90;;;;;;4963921;28;20125;-74
2024/01/02 01:58:14;;;;;;;3.83;0.50;;;7.40;99.90;;;;;;4948395;28;20516;-74
2024/01/02 02:00:40;;;;;;;1.60;0.30;;;7.50;99.90;;;;;;4959594;28;20114;-72
2024/01/02 02:03:06;;;;;;;2.50;0.50;;;7.50;99.90;;;;;;4956406;28;20039;-75
2024/01/02 02:05:33;;;;;;;2.78;1.02;;;7.50;99.90;;;;;;4960385;28;20031;-73
2024/01/02 02:07:58;;;;;;;3.65;0.80;;;7.50;99.90;;;;;;4949926;28;20042;-74
2024/01/02 02:10:24;;;;;;;2.08;0.70;;;7.50;99.90;;;;;;4948637;28;20058;-75
2024/01/02 02:12:50;;;;;;;3.50;0.30;;;7.50;99.90;;;;;;4948525;29;20060;-74
2024/01/02 02:15:16;;;;;;;6.18;0.52;;;7.50;99.90;;;;;;4948497;28;20043;-73
2024/01/02 02:17:42;;;;;;;5.95;0.55;;;7.50;99.90;;;;;;4963801;28;20214;-73
2024/01/02 02:20:08;;;;;;;3.08;0.90;;;7.40;99.90;;;;;;4953149;28;20495;-75
2024/01/02 02:22:35;;;;;;;1.40;0.25;;;7.50;99.90;;;;;;4954706;28;20031;-75
2024/01/02 02:25:05;;;;;;;2.80;0.20;;;7.50;99.90;;;;;;4961183;28;20043;-75
2024/01/02 02:27:32;;;;;;;0.30;0.10;;;7.50;99.90;;;;;;4967923;28;20031;-74
2024/01/02 02:29:58;;;;;;;5.13;0.73;;;7.60;99.90;;;;;;4951055;28;20163;-75
2024/01/02 02:32:24;;;;;;;2.45;0.50;;;7.50;99.90;;;;;;4957312;28;20114;-75
2024/01/02 02:34:49;;;;;;;1.20;0.20;;;7.50;99.90;;;;;;4967219;28;20158;-75
2024/01/02 02:37:15;;;;;;;2.38;0.80;;;7.60;99.90;;;;;;4950879;28;20073;-75
2024/01/02 02:39:40;;;;;;;3.65;0.35;;;7.60;99.90;;;;;;4960400;28;20407;-74
2024/01/02 02:42:06;;;;;;;0.60;0.20;;;7.60;99.90;;;;;;4961646;28;20118;-73
2024/01/02 02:44:33;;;;;;;0.93;0.20;;;7.60;99.90;;;;;;4965970;28;20039;-74
2024/01/02 02:46:58;;;;;;;1.27;0.30;;;7.60;99.90;;;;;;4966409;28;20077;-74
2024/01/02 02:49:25;;;;;;;1.38;0.10;;;7.60;99.90;;;;;;4959361;28;20028;-75
2024/01/02 02:51:51;;;;;;;0.55;0.10;;;7.70;99.90;;;;;;4964633;28;20094;-75
2024/01/02 02:54:17;;;;;;;1.25;0.50;;;7.70;99.90;;;;;;4966315;28;20439;-72
2024/01/02 02:56:43;;;;;;;2.67;0.13;;;7.70;99.90;;;;;;4966819;28;20038;-75
2024/01/02 02:59:12;;;;;;;1.50;0.00;;;7.80;99.90;;;;;;4959433;28;20081;-75
2024/01/02 03:01:38;;;;;;;2.50;0.10;;;7.70;99.90;;;;;;4959323;28;20057;-74
2024/01/02 03:04:05;;;;;;;1.08;0.10;;;7.80;99.90;;;;;;4955348;28;20488;-75
2024/01/02 03:06:31;;;;;;;5.55;0.77;;;7.80;99.90;;;;;;4957149;28;20043;-74
2024/01/02 03:08:56;;;;;;;1.45;0.10;;;7.70;99.90;;;;;;4949851;28;20163;-75
2024/01/02 03:11:22;;;;;;;0.43;0.00;;;7.80;99.90;;;;;;4950606;28;20134;-77
2024/01/02 03:13:47;;;;;;;3.13;0.22;;;7.70;99.90;;;;;;4948808;28;20094;-75
2024/01/02 03:16:14;;;;;;;0.47;0.10;;;7.80;99.90;;;;;;4951431;28;20038;-72
2024/01/02 03:18:40;;;;;;;0.75;0.10;;;7.80;99.90;;;;;;4946977;28;20043;-75
2024/01/02 03:21:08;;;;;;;0.60;0.10;;;7.80;99.90;;;;;;4948022;28;20035;-76
2024/01/02 03:23:34;;;;;;;0.65;0.00;;;7.80;99.90;;;;;;4954857;28;20035;-73
2024/01/02 03:25:59;;;;;;;0.10;0.00;;;7.80;99.90;;;;;;4967051;28;20047;-74
2024/01/02 03:28:26;;;;;;;0.45;0.10;;;7.80;99.90;;;;;;4959651;28;20038;-76
2024/01/02 03:30:52;;;;;;;1.08;0.10;;;7.80;99.90;;;;;;4949165;28;20040;-74
2024/01/02 03:33:17;;;;;;;0.73;0.20;;;7.90;99.90;;;;;;4947493;28;20027;-76
2024/01/02 03:35:44;;;;;;;0.20;0.00;;;7.80;99.90;;;;;;4963274;28;20197;-75
2024/01/02 03:38:10;;;;;;;0.88;0.10;;;7.80;99.90;;;;;;4950863;28;20126;-75
2024/01/02 03:40:35;;;;;;;0.20;0.00;;;7.80;99.90;;;;;;4946289;28;20114;-75
2024/01/02 03:43:01;;;;;;;0.73;0.20;;;7.90;99.90;;;;;;4947299;28;20417;-75
2024/01/02 03:45:26;;;;;;;0.20;0.10;;;7.90;99.90;;;;;;4956906;28;20050;-75
2024/01/02 03:47:52;;;;;;;0.73;0.20;;;7.80;99.90;;;;;;4953250;28;20038;-75
2024/01/02 03:50:17;;;;;;;1.98;0.10;;;7.90;99.90;;;;;;4956522;28;20570;-74
2024/01/02 03:52:43;;;;;;;1.02;0.20;;;7.90;99.90;;;;;;4957397;28;20066;-75
2024/01/02 03:55:09;;;;;;;0.10;0.10;;;7.90;99.90;;;;;;4956825;28;20086;-73
2024/01/02 03:57:34;;;;;;;0.57;0.10;;;7.90;99.90;;;;;;4953099;28;20046;-74
2024/01/02 04:00:00;;;;;;;0.73;0.10;;;7.90;99.90;;;;;;4950179;28;20035;-75
2024/01/02 04:02:26;;;;;;;0.10;0.00;;;7.90;99.90;;;;;;4958949;28;20098;-74
2024/01/02 04:04:52;;;;;;;0.20;0.10;;;8.00;99.90;;;;;;4956306;28;20082;-75
2024/01/02 04:07:17;;;;;;;0.63;0.10;;;8.00;99.90;;;;;;4960122;28;20039;-73
2024/01/02 04:09:43;;;;;;;0.08;0.08;;;8.10;99.90;;;;;;4956084;28;20071;-75
2024/01/02 04:12:08;;;;;;;0.22;0.03;;;8.10;99.90;;;;;;4946862;28;20038;-76
2024/01/02 04:14:34;;;;;;;0.30;0.10;;;8.10;99.90;;;;;;4953077;28;20039;-73
2024/01/02 04:17:00;;;;;;;1.85;0.17;;;8.20;99.90;;;;;;4952667;28;20032;-75
2024/01/02 04:19:26;;;;;;;0.20;0.10;;;8.20;99.90;;;;;;4953767;28;20067;-75
2024/01/02 04:21:51;;;;;;;0.30;0.22;;;8.20;99.90;;;;;;4962394;28;20078;-71
2024/01/02 04:24:17;;;;;;;0.52;0.10;;;8.30;99.90;;;;;;4950324;28;20399;-75
2024/01/02 04:26:43;;;;;;;0.50;0.10;;;8.30;99.90;;;;;;4963029;28;20384;-76
2024/01/02 04:29:08;;;;;;;0.30;0.20;;;8.30;99.90;;;;;;4965081;28;20049;-73
2024/01/02 04:31:34;;;;;;;0.35;0.25;;;8.30;99.90;;;;;;4953358;28;20729;-75
2024/01/02 04:33:59;;;;;;;0.22;0.13;;;8.40;99.90;;;;;;4956859;28;20043;-76
2024/01/02 04:36:28;;;;;;;0.65;0.28;;;8.50;99.90;;;;;;4949505;28;20039;-75
2024/01/02 04:38:54;;;;;;;0.20;0.10;;;8.40;99.90;;;;;;4953511;28;20043;-75
2024/01/02 04:41:22;;;;;;;0.15;0.10;;;8.50;99.90;;;;;;4947781;28;20639;-73
2024/01/02 04:43:48;;;;;;;1.35;0.22;;;8.50;99.90;;;;;;4957200;28;20155;-76
2024/01/02 04:46:14;;;;;;;0.80;0.22;;;8.50;99.90;;;;;;4954374;28;20103;-72
2024/01/02 04:48:39;;;;;;;0.22;0.20;;;8.60;99.90;;;;;;4947782;28;20509;-74
2024/01/02 04:51:05;;;;;;;1.30;0.20;;;8.60;99.90;;;;;;4946395;28;20035;-73
2024/01/02 04:53:30;;;;;;;0.55;0.30;;;8.70;99.90;;;;;;4946959;28;20035;-75
2024/01/02 04:55:56;;;;;;;0.20;0.20;;;8.70;99.90;;;;;;4957279;28;20058;-74
2024/01/02 04:58:21;;;;;;;0.35;0.30;;;8.70;99.90;;;;;;4952362;28;20523;-76
2024/01/02 05:00:47;;;;;;;0.38;0.22;;;8.80;99.90;;;;;;4951889;28;20122;-76
2024/01/02 05:03:13;;;;;;;0.88;0.50;;;8.90;99.90;;;;;;4947532;28;20480;-74
2024/01/02 05:05:38;;;;;;;0.60;0.47;;;8.90;99.90;;;;;;4948206;28;20039;-74
2024/01/02 05:08:05;;;;;;;1.08;0.60;;;9.00;99.90;;;;;;4946179;28;20042;-72
2024/01/02 05:10:30;;;;;;;0.68;0.50;;;9.00;99.90;;;;;;4952957;28;20031;-75
2024/01/02 05:12:56;;;;;;;0.95;0.60;;;9.10;99.90;;;;;;4963168;28;20031;-75
2024/01/02 05:15:21;;;;;;;0.50;0.50;;;9.10;99.90;;;;;;4954134;28;20024;-75
2024/01/02 05:17:47;;;;;;;0.68;0.43;;;9.10;99.90;;;;;;4948031;28;20388;-74
2024/01/02 05:20:13;;;;;;;0.63;0.40;;;9.20;99.90;;;;;;4950225;28;20129;-76
2024/01/02 05:22:39;;;;;;;0.47;0.30;;;9.30;99.90;;;;;;4948935;28;20035;-75
2024/01/02 05:25:05;;;;;;;0.60;0.40;;;9.40;99.90;;;;;;4957346;28;20815;-75
2024/01/02 05:27:31;;;;;;;0.65;0.40;;;9.50;99.90;;;;;;4947753;28;20031;-76
2024/01/02 05:29:56;;;;;;;2.70;0.30;;;9.60;99.90;;;;;;4961258;28;20043;-75
2024/01/02 05:32:22;;;;;;;1.52;0.82;;;9.60;99.90;;;;;;4961358;28;20031;-75
2024/01/02 05:34:47;;;;;;;0.75;0.43;;;9.70;99.90;;;;;;4949476;28;20104;-72
2024/01/02 05:37:15;;;;;;;2.30;1.00;;;9.70;99.90;;;;;;4958380;28;20031;-74
2024/01/02 05:39:41;;;;;;;0.80;0.52;;;9.80;99.90;;;;;;4958729;28;20037;-75
2024/01/02 05:42:07;;;;;;;1.50;0.68;;;9.80;99.90;;;;;;4969229;28;20047;-71
2024/01/02 05:44:33;;;;;;;1.90;0.40;;;9.80;99.90;;;;;;4959785;28;20101;-74
2024/01/02 05:46:58;;;;;;;3.50;0.57;;;9.80;99.90;;;;;;4964651;28;20129;-73
2024/01/02 05:49:24;;;;;;;0.82;0.63;;;9.80;99.90;;;;;;4953632;28;20047;-77
2024/01/02 05:51:49;;;;;;;1.35;0.40;;;9.80;99.90;;;;;;4954867;28;20040;-74
2024/01/02 05:54:15;;;;;;;1.98;1.13;;;9.80;99.90;;;;;;4950197;28;20083;-76
2024/01/02 05:56:41;;;;;;;1.65;0.70;;;9.80;99.90;;;;;;4964594;28;20490;-75
2024/01/02 05:59:06;;;;;;;3.30;0.82;;;9.80;99.90;;;;;;4952608;28;20054;-73
2024/01/02 06:01:32;;;;;;;5.53;1.20;;;9.90;99.90;;;;;;4964953;28;20133;-75
2024/01/02 06:03:57;;;;;;;4.57;1.27;;;9.90;99.90;;;;;;4954036;28;20118;-75
2024/01/02 06:06:23;;;;;;;10.73;1.45;;;9.90;99.90;;;;;;4952850;28;20039;-76
2024/01/02 06:08:49;;;;;;;9.70;1.85;;;10.10;99.90;;;;;;4948458;28;20118;-71
2024/01/02 06:11:14;;;;;;;13.75;2.05;;;10.10;99.90;;;;;;4949492;28;20066;-75
2024/01/02 06:13:40;;;;;;;13.05;1.65;;;10.00;99.90;;;;;;4949023;28;20157;-74
2024/01/02 06:16:10;;;;;;;16.45;3.15;;;10.00;99.90;;;;;;4952025;28;20049;-73
2024/01/02 06:18:36;;;;;;;15.20;2.45;;;10.10;99.90;;;;;;4967212;28;20466;-74
2024/01/02 06:21:02;;;;;;;15.73;2.53;;;10.10;99.90;;;;;;4956823;28;20090;-77
2024/01/02 06:23:28;;;;;;;13.57;1.77;;;10.20;99.90;;;;;;4955582;28;20027;-75
2024/01/02 06:25:54;;;;;;;16.15;1.67;;;10.20;99.90;;;;;;4952622;28;20045;-75
2024/01/02 06:28:19;;;;;;;9.95;1.15;;;10.20;99.90;;;;;;4962601;28;20050;-76
2024/01/02 06:30:45;;;;;;;17.05;1.75;;;10.20;99.90;;;;;;4961084;28;21169;-74
2024/01/02 06:33:11;;;;;;;16.38;1.65;;;10.30;99.90;;;;;;4950848;28;20094;-74
2024/01/02 06:35:36;;;;;;;16.48;2.28;;;10.30;99.90;;;;;;4965928;28;20651;-76
2024/01/02 06:38:02;;;;;;;15.57;3.45;;;10.30;99.90;;;;;;4956661;28;20075;-76
2024/01/02 06:40:28;;;;;;;9.85;1.60;;;10.40;99.90;;;;;;4954409;28;20119;-75
2024/01/02 06:42:53;;;;;;;26.88;2.72;;;10.40;99.90;;;;;;4960148;28;20492;-74
2024/01/02 06:45:19;;;;;;;18.92;2.08;;;10.40;99.90;;;;;;4961223;28;20051;-75
2024/01/02 06:47:45;;;;;;;16.30;2.08;;;10.50;99.90;;;;;;4959098;28;20054;-74
2024/01/02 06:50:10;;;;;;;22.58;2.33;;;10.50;99.90;;;;;;4948394;28;20049;-75
2024/01/02 06:52:36;;;;;;;21.70;2.47;;;10.50;99.90;;;;;;4950513;28;20085;-75
2024/01/02 06:55:04;;;;;;;14.93;2.78;;;10.50;99.90;;;;;;4959294;28;20109;-76
2024/01/02 06:57:29;;;;;;;22.95;2.65;;;10.50;99.90;;;;;;4948951;28;20035;-74
2024/01/02 06:59:55;;;;;;;26.65;4.20;;;10.50;99.90;;;;;;4960461;28;20130;-76
2024/01/02 07:02:21;;;;;;;12.13;3.22;;;10.40;99.90;;;;;;4951868;28;20117;-74
2024/01/02 07:04:46;;;;;;;30.50;3.05;;;10.40;99.90;;;;;;4952751;28;20035;-76
2024/01/02 07:07:12;;;;;;;14.80;3.00;;;10.50;99.90;;;;;;4957268;28;20043;-77
2024/01/02 07:09:37;;;;;;;21.45;2.28;;;10.40;99.90;;;;;;4944976;28;20144;-75
2024/01/02 07:12:04;;;;;;;14.38;1.73;;;10.50;99.90;;;;;;4928589;29;20058;-76
2024/01/02 07:14:29;;;;;;;20.23;3.25;;;10.50;99.90;;;;;;4927612;28;20063;-73
2024/01/02 07:16:55;;;;;;;26.67;3.08;;;10.40;99.90;;;;;;4928405;29;20556;-74
2024/01/02 07:19:20;;;;;;;43.40;5.07;;;10.40;99.90;;;;;;4941621;28;20031;-74
2024/01/02 07:21:46;;;;;;;24.88;4.03;;;10.40;99.90;;;;;;4962361;28;20043;-75
2024/01/02 07:24:15;;;;;;;17.73;2.55;;;10.50;99.90;;;;;;4958215;28;20054;-76
2024/01/02 07:26:41;;;;;;;26.38;3.38;;;10.50;99.90;;;;;;4965990;28;20144;-74
2024/01/02 07:29:07;;;;;;;24.70;3.50;;;10.50;99.90;;;;;;4966677;28;20486;-75
2024/01/02 07:31:34;;;;;;;26.25;2.95;;;10.50;99.90;;;;;;4961831;28;20118;-75
2024/01/02 07:33:59;;;;;;;23.05;3.33;;;10.40;99.90;;;;;;4960298;28;20039;-76
2024/01/02 07:36:25;;;;;;;14.30;2.38;;;10.40;99.90;;;;;;4946810;28;20043;-75
2024/01/02 07:38:51;;;;;;;19.98;2.35;;;10.40;99.90;;;;;;4959730;28;20812;-74
2024/01/02 07:41:16;;;;;;;29.42;4.32;;;10.40;99.90;;;;;;4949043;28;20039;-72
2024/01/02 07:43:42;;;;;;;21.15;2.88;;;10.40;99.90;;;;;;4961857;28;20411;-75
2024/01/02 07:46:07;;;;;;;22.10;3.70;;;10.30;99.90;;;;;;4956961;28;20097;-75
2024/01/02 07:48:33;;;;;;;31.30;3.55;;;10.40;99.90;;;;;;4949839;28;20030;-73
2024/01/02 07:50:59;;;;;;;17.65;2.58;;;10.30;99.90;;;;;;4947658;28;20058;-75
2024/01/02 07:53:24;;;;;;;21.10;2.85;;;10.40;99.90;;;;;;4947718;28;20506;-76
2024/01/02 07:55:50;;;;;;;32.22;4.25;;;10.30;99.90;;;;;;4959767;28;20038;-73
2024/01/02 07:58:15;;;;;;;21.23;2.38;;;10.30;99.90;;;;;;4947996;28;20646;-74
2024/01/02 08:00:41;;;;;;;26.77;3.00;;;10.40;99.90;;;;;;4946755;28;20047;-74
2024/01/02 08:03:06;;;;;;;25.02;4.43;;;10.30;99.90;;;;;;4943029;28;20126;-75
2024/01/02 08:05:32;;;;;;;37.88;3.55;;;10.30;99.90;;;;;;4929315;28;20063;-74
2024/01/02 08:07:58;;;;;;;28.98;3.75;;;10.30;99.90;;;;;;4956823;28;20041;-75
2024/01/02 08:10:23;;;;;;;27.95;4.07;;;10.30;99.90;;;;;;4953339;28;20522;-74
2024/01/02 08:12:49;;;;;;;24.45;3.60;;;10.30;99.90;;;;;;4944987;28;20130;-72
2024/01/02 08:15:15;;;;;;;25.83;3.42;;;10.30;99.90;;;;;;4958103;28;20042;-75
2024/01/02 08:17:40;;;;;;;37.15;4.45;;;10.30;99.90;;;;;;4963117;28;20792;-74
2024/01/02 08:20:07;;;;;;;28.52;4.30;;;10.30;99.90;;;;;;4956932;28;20039;-74
2024/01/02 08:22:32;;;;;;;27.45;3.38;;;10.30;99.90;;;;;;4963988;28;20061;-75
2024/01/02 08:24:58;;;;;;;27.35;3.78;;;10.30;99.90;;;;;;4962133;28;20122;-73
2024/01/02 08:27:25;;;;;;;23.42;2.67;;;10.30;99.90;;;;;;4949269;28;20043;-74
2024/01/02 08:29:51;;;;;;;37.08;3.78;;;10.30;99.90;;;;;;4952711;28;20126;-74
2024/01/02 08:32:18;;;;;;;25.08;3.45;;;10.30;99.90;;;;;;4945585;28;20049;-71
2024/01/02 08:34:43;;;;;;;27.40;3.75;;;10.30;99.90;;;;;;4955388;28;20086;-71
2024/01/02 08:37:09;;;;;;;30.15;3.60;;;10.30;99.90;;;;;;4949959;28;20043;-72
2024/01/02 08:39:35;;;;;;;35.35;3.47;;;10.40;99.90;;;;;;4948403;28;20096;-76
2024/01/02 08:42:01;;;;;;;30.05;4.38;;;10.30;99.90;;;;;;4946144;28;20054;-76
2024/01/02 08:44:26;;;;;;;21.17;3.67;;;10.30;99.90;;;;;;4936270;28;20038;-73
2024/01/02 08:46:52;;;;;;;22.33;2.53;;;10.30;99.90;;;;;;4926262;29;20548;-74
2024/01/02 08:49:18;;;;;;;17.20;2.20;;;10.30;99.90;;;;;;4938267;28;20408;-75
2024/01/02 08:51:43;;;;;;;22.38;3.15;;;10.30;99.90;;;;;;4956161;28;20098;-75
2024/01/02 08:54:09;;;;;;;29.17;2.85;;;10.30;99.90;;;;;;4950948;28;20062;-76
2024/01/02 08:56:34;;;;;;;24.65;4.22;;;10.30;99.90;;;;;;4953298;28;20062;-75
2024/01/02 08:59:00;;;;;;;24.75;2.75;;;10.30;99.90;;;;;;4952112;28;20510;-77
2024/01/02 09:01:26;;;;;;;23.85;2.47;;;10.30;99.90;;;;;;4947904;28;20043;-76
2024/01/02 09:03:53;;;;;;;22.48;3.80;;;10.30;99.90;;;;;;4948141;28;20036;-73
2024/01/02 09:06:19;;;;;;;21.55;3.50;;;10.30;99.90;;;;;;4959004;28;20038;-76
2024/01/02 09:08:45;;;;;;;28.88;3.72;;;10.40;99.90;;;;;;4947231;28;20024;-74
2024/01/02 09:11:12;;;;;;;24.98;3.10;;;10.50;99.90;;;;;;4947736;28;20570;-73
2024/01/02 09:13:37;;;;;;;24.70;3.45;;;10.50;99.90;;;;;;4966610;28;20050;-73
2024/01/02 09:16:03;;;;;;;36.47;3.42;;;10.60;99.90;;;;;;4950113;28;20027;-74
2024/01/02 09:18:29;;;;;;;25.45;3.03;;;10.60;99.90;;;;;;4932897;28;20039;-73
2024/01/02 09:20:55;;;;;;;35.25;3.67;;;10.60;99.90;;;;;;4947599;28;20039;-73
2024/01/02 09:23:20;;;;;;;26.98;3.60;;;10.60;99.90;;;;;;4945928;28;20047;-75
2024/01/02 09:25:49;;;;;;;21.70;3.58;;;10.60;99.90;;;;;;4945962;28;20330;-72
2024/01/02 09:28:16;;;;;;;32.17;4.10;;;10.60;99.90;;;;;;4947799;29;20031;-73
2024/01/02 09:30:43;;;;;;;27.02;4.30;;;10.70;99.90;;;;;;4958604;28;20043;-74
2024/01/02 09:33:09;;;;;;;27.85;3.25;;;10.70;99.90;;;;;;4948447;28;20043;-72
2024/01/02 09:35:36;;;;;;;27.58;4.40;;;10.80;99.90;;;;;;4915386;28;1151171;-75
2024/01/02 09:38:06;;;;;;;38.92;5.00;;;10.80;99.90;;;;;;4953813;28;20043;-76
2024/01/02 09:40:52;;;;;;;31.02;5.22;;;10.80;99.90;;;;;;4954708;28;20042;-74
2024/01/02 09:43:26;;;;;;;30.42;3.88;;;10.90;99.90;;;;;;4956564;28;20039;-74
2024/01/02 09:46:08;;;;;;;28.88;3.90;;;11.00;99.90;;;;;;4954217;28;20047;-74
2024/01/02 09:49:06;;;;;;;39.05;3.25;;;11.00;99.90;;;;;;4948202;28;20103;-75
2024/01/02 09:51:41;;;;;;;32.10;5.85;;;11.00;99.90;;;;;;4949815;28;20384;-75
2024/01/02 09:54:26;;;;;;;27.60;4.10;;;11.00;99.90;;;;;;4960850;28;20376;-74
2024/01/02 09:56:57;;;;;;;20.23;3.13;;;11.10;99.90;;;;;;4947077;28;20054;-75
2024/01/02 09:59:43;;;;;;;32.45;3.85;;;11.10;99.90;;;;;;4951636;28;20061;-78
2024/01/02 10:02:25;;;;;;;26.15;4.30;;;11.20;99.90;;;;;;4952689;28;20991;-73
2024/01/02 10:05:18;;;;;;;32.08;4.32;;;11.20;99.90;;;;;;4968206;28;20035;-73
2024/01/02 10:08:06;;;;;;;20.52;3.42;;;11.20;99.90;;;;;;4946576;28;20101;-73
2024/01/02 10:10:36;;;;;;;24.77;3.80;;;11.20;99.90;;;;;;4952144;28;20041;-73
2024/01/02 10:13:11;;;;;;;28.65;4.60;;;11.30;99.90;;;;;;4949991;28;20775;-74
2024/01/02 10:15:58;;;;;;;26.60;3.85;;;11.30;99.90;;;;;;4960158;28;20042;-73
2024/01/02 10:18:42;;;;;;;25.45;3.78;;;11.30;99.90;;;;;;4966743;28;20535;-73
2024/01/02 10:21:23;;;;;;;23.48;3.63;;;11.20;99.90;;;;;;4963203;28;20038;-75
2024/01/02 10:24:03;;;;;;;23.55;2.95;;;11.20;99.90;;;;;;4966909;28;20043;-74
2024/01/02 10:26:36;;;;;;;20.27;3.22;;;11.20;99.90;;;;;;4966045;28;20492;-73
2024/01/02 10:29:05;;;;;;;17.23;2.20;;;11.20;99.90;;;;;;4966873;28;20453;-74
2024/01/02 10:31:44;;;;;;;14.25;2.22;;;11.30;99.90;;;;;;4967081;28;20035;-73
2024/01/02 10:34:27;;;;;;;13.85;3.10;;;11.20;99.90;;;;;;4950658;28;20058;-73
2024/01/02 10:36:57;;;;;;;18.10;2.92;;;11.20;99.90;;;;;;4927688;29;20051;-74
2024/01/02 10:39:39;;;;;;;18.67;3.03;;;11.30;99.90;;;;;;4946106;28;20051;-73
2024/01/02 10:42:11;;;;;;;13.07;2.15;;;11.40;99.90;;;;;;4964517;28;20045;-76
2024/01/02 10:45:06;;;;;;;14.73;1.92;;;11.40;99.90;;;;;;4947122;28;20047;-75
2024/01/02 10:47:45;;;;;;;13.60;2.40;;;11.40;99.90;;;;;;4945871;28;20043;-74
2024/01/02 10:50:15;;;;;;;11.10;2.47;;;11.40;99.90;;;;;;4949409;28;20071;-72
2024/01/02 10:52:49;;;;;;;16.35;1.98;;;11.40;99.90;;;;;;4947955;28;20027;-76
2024/01/02 10:55:41;;;;;;;14.52;1.50;;;11.40;99.90;;;;;;4930549;29;20035;-76
2024/01/02 10:58:19;;;;;;;8.48;1.05;;;11.30;99.90;;;;;;4941470;28;20038;-73
2024/01/02 11:01:15;;;;;;;10.23;2.22;;;11.30;99.90;;;;;;4948597;28;20027;-74
2024/01/02 11:03:52;;;;;;;5.82;0.98;;;11.30;99.90;;;;;;4946517;28;20180;-74
2024/01/02 11:06:43;;;;;;;10.73;1.35;;;11.30;99.90;;;;;;4947260;28;20106;-74
2024/01/02 11:09:29;;;;;;;10.65;1.60;;;11.30;99.90;;;;;;4957970;28;20074;-75
2024/01/02 11:11:57;;;;;;;9.32;1.77;;;11.30;99.90;;;;;;4947218;28;20035;-75
2024/01/02 11:14:25;;;;;;;8.70;1.65;;;11.20;99.90;;;;;;4949595;28;20031;-75
2024/01/02 11:16:53;;;;;;;6.07;1.50;;;11.20;99.90;;;;;;4965754;28;20053;-76
2024/01/02 11:19:27;;;;;;;6.75;1.23;;;11.20;99.90;;;;;;4951550;28;20034;-75
2024/01/02 11:22:04;;;;;;;9.80;2.47;;;11.20;99.90;;;;;;4946190;28;20672;-76
2024/01/02 11:24:31;;;;;;;8.43;2.53;;;11.20;99.90;;;;;;4961666;28;20046;-75
2024/01/02 11:27:03;;;;;;;6.57;2.45;;;11.30;99.90;;;;;;4958354;28;20536;-76
2024/01/02 11:29:33;;;;;;;5.65;2.28;;;11.40;99.90;;;;;;4960620;28;20479;-73
2024/01/02 11:32:12;;;;;;;5.40;2.70;;;11.30;99.90;;;;;;4966512;28;20041;-74
2024/01/02 11:35:13;;;;;;;3.67;2.17;;;11.40;99.90;;;;;;4928315;29;20127;-76
2024/01/02 11:37:40;;;;;;;;;;;11.40;99.90;;;;;;4875029;28;20102;-74
2024/01/02 11:40:36;;;;;;;6.40;2.40;;;11.40;99.90;;;;;;4926992;29;19962;-75
2024/01/02 11:43:23;;;;;;;2.85;1.75;;;11.50;99.90;;;;;;4957154;28;20065;-74
2024/01/02 11:45:56;;;;;;;2.13;1.42;;;11.40;99.90;;;;;;4959718;28;20046;-75
2024/01/02 11:48:37;;;;;;;2.00;1.40;;;11.50;99.90;;;;;;4966565;28;20038;-76
2024/01/02 11:51:14;;;;;;;3.67;1.40;;;11.50;99.90;;;;;;4943959;29;20055;-77
2024/01/02 11:54:01;;;;;;;3.67;2.35;;;11.40;99.90;;;;;;4957653;28;20038;-74
2024/01/02 11:56:28;;;;;;;5.07;2.03;;;11.40;99.90;;;;;;4932370;28;20106;-76
2024/01/02 11:59:18;;;;;;;4.10;2.63;;;11.40;99.90;;;;;;4946004;28;20046;-74
2024/01/02 12:01:58;;;;;;;4.03;2.55;;;11.40;99.90;;;;;;4944476;28;20509;-74
2024/01/02 12:04:54;;;;;;;5.22;3.05;;;11.30;99.90;;;;;;4946808;28;20035;-75
2024/01/02 12:07:26;;;;;;;3.22;1.70;;;11.30;99.90;;;;;;4956890;28;20039;-74
2024/01/02 12:09:53;;;;;;;3.28;1.40;;;11.30;99.90;;;;;;4957915;28;20070;-75
2024/01/02 12:12:31;;;;;;;3.88;1.50;;;11.40;99.90;;;;;;4955562;28;20038;-74
2024/01/02 12:15:10;;;;;;;3.10;1.90;;;11.30;99.90;;;;;;4965964;28;20047;-74
2024/01/02 12:17:47;;;;;;;2.95;1.65;;;11.30;99.90;;;;;;4934516;28;20043;-74
2024/01/02 12:20:17;;;;;;;1.85;1.33;;;11.20;99.90;;;;;;4954938;28;20073;-75
2024/01/02 12:22:43;;;;;;;1.30;0.80;;;11.20;99.90;;;;;;4965724;28;20839;-74
2024/01/02 12:25:11;;;;;;;0.93;0.57;;;11.30;99.90;;;;;;4949694;28;20129;-72
2024/01/02 12:27:38;;;;;;;0.85;0.60;;;11.30;99.90;;;;;;4944633;28;20162;-72
2024/01/02 12:30:06;;;;;;;1.15;0.60;;;11.20;99.90;;;;;;4959870;28;20037;-74
2024/01/02 12:32:37;;;;;;;0.55;0.45;;;11.20;99.90;;;;;;4945033;28;20023;-75
2024/01/02 12:35:08;;;;;;;0.75;0.20;;;11.30;99.90;;;;;;4946584;28;20071;-77
2024/01/02 12:37:37;;;;;;;0.30;0.15;;;11.20;99.90;;;;;;4945946;28;20039;-73
2024/01/02 12:40:06;;;;;;;0.98;0.30;;;11.20;99.90;;;;;;4953177;28;20045;-71
2024/01/02 12:42:46;;;;;;;0.35;0.10;;;11.20;99.90;;;;;;4958446;28;20463;-73
2024/01/02 12:45:17;;;;;;;0.40;0.20;;;11.10;99.90;;;;;;4959582;28;20057;-73
2024/01/02 12:47:46;;;;;;;0.17;0.08;;;11.20;99.90;;;;;;4960558;28;20070;-72
2024/01/02 12:50:13;;;;;;;1.70;0.20;;;11.10;99.90;;;;;;4958837;28;20090;-73
2024/01/02 12:52:43;;;;;;;1.13;0.20;;;11.10;99.90;;;;;;4945671;28;20287;-75
2024/01/02 12:55:11;;;;;;;2.28;0.20;;;11.10;99.90;;;;;;4950134;28;20039;-74